Time;durP1;ratioP1;P1;durP2;ratioP2;P2;SDS_P1;SDS_P2;PMS_P1;PMS_P2;Temp;Humidity;BMP_temperature;BMP_pressure;BME280_temperature;BME280_humidity;BME280_pressure;Samples;Min_cycle;Max_cycle;Signal;HPM_P1;HPM_P2
2021/01/19 00:01:12;;;;;;;6.53;4.80;;;5.10;99.90;;;;;;5007048;28;20194;-48
2021/01/19 00:03:37;;;;;;;9.13;5.20;;;5.10;99.90;;;;;;5024764;28;20219;-46
2021/01/19 00:06:06;;;;;;;10.13;5.53;;;5.00;99.90;;;;;;5021876;28;20283;-53
2021/01/19 00:08:32;;;;;;;15.67;5.57;;;5.00;99.90;;;;;;5023956;28;20212;-47
2021/01/19 00:10:58;;;;;;;15.03;6.83;;;5.10;99.90;;;;;;5020281;28;20212;-51
2021/01/19 00:13:24;;;;;;;9.00;6.37;;;5.10;99.90;;;;;;5021441;28;20200;-52
2021/01/19 00:15:50;;;;;;;11.53;5.90;;;5.00;99.90;;;;;;5009849;28;20204;-52
2021/01/19 00:18:16;;;;;;;11.83;5.53;;;5.10;99.90;;;;;;5020161;28;20176;-53
2021/01/19 00:20:42;;;;;;;7.77;4.97;;;5.10;99.90;;;;;;5024786;28;20676;-51
2021/01/19 00:23:12;;;;;;;10.07;5.73;;;5.10;99.90;;;;;;5021973;28;20208;-53
2021/01/19 00:25:41;;;;;;;11.87;6.07;;;5.00;99.90;;;;;;5025553;28;20219;-51
2021/01/19 00:28:08;;;;;;;15.50;6.20;;;5.00;99.90;;;;;;5022265;28;20274;-48
2021/01/19 00:30:37;;;;;;;14.97;6.60;;;5.00;99.90;;;;;;5010973;28;20294;-51
2021/01/19 00:33:02;;;;;;;9.00;5.80;;;5.00;99.90;;;;;;5022743;28;20200;-45
2021/01/19 00:35:28;;;;;;;8.70;6.10;;;5.00;99.90;;;;;;5023676;28;20432;-54
2021/01/19 00:37:53;;;;;;;11.63;6.80;;;5.00;99.90;;;;;;5023569;28;20183;-49
2021/01/19 00:40:19;;;;;;;14.30;6.37;;;5.10;99.90;;;;;;5020421;28;20583;-48
2021/01/19 00:42:44;;;;;;;19.07;7.20;;;5.00;99.90;;;;;;5023283;28;20267;-47
2021/01/19 00:45:10;;;;;;;14.50;7.20;;;5.00;99.90;;;;;;5002909;28;20298;-47
2021/01/19 00:47:36;;;;;;;10.73;6.13;;;5.00;99.90;;;;;;5024349;28;20192;-51
2021/01/19 00:50:03;;;;;;;13.37;7.83;;;5.00;99.90;;;;;;5022648;28;20575;-51
2021/01/19 00:52:29;;;;;;;12.33;6.60;;;5.00;99.90;;;;;;5022944;28;20176;-47
2021/01/19 00:54:54;;;;;;;12.17;6.63;;;5.00;99.90;;;;;;5022949;28;20208;-50
2021/01/19 00:57:20;;;;;;;12.17;7.00;;;5.00;99.90;;;;;;5020762;28;20184;-48
2021/01/19 00:59:45;;;;;;;13.53;7.87;;;5.00;99.90;;;;;;5023257;28;20333;-47
2021/01/19 01:02:10;;;;;;;12.40;7.50;;;5.00;99.90;;;;;;5005403;28;20180;-47
2021/01/19 01:04:36;;;;;;;11.43;7.53;;;5.00;99.90;;;;;;5023122;28;20223;-52
2021/01/19 01:07:02;;;;;;;13.03;7.70;;;5.00;99.90;;;;;;5020754;28;20192;-51
2021/01/19 01:09:27;;;;;;;18.50;8.60;;;5.00;99.90;;;;;;5021380;28;20180;-49
2021/01/19 01:11:52;;;;;;;16.60;8.07;;;5.00;99.90;;;;;;5022767;28;20543;-53
2021/01/19 01:14:18;;;;;;;13.97;7.90;;;5.00;99.90;;;;;;5020028;28;20191;-48
2021/01/19 01:16:43;;;;;;;12.60;7.50;;;5.00;99.90;;;;;;5010008;28;20203;-47
2021/01/19 01:19:10;;;;;;;16.70;8.37;;;5.00;99.90;;;;;;5018554;28;20187;-52
2021/01/19 01:21:41;;;;;;;13.57;6.93;;;5.00;99.90;;;;;;5023576;28;20657;-49
2021/01/19 01:24:08;;;;;;;14.83;8.20;;;5.00;99.90;;;;;;5020994;28;20203;-52
2021/01/19 01:26:34;;;;;;;12.77;8.47;;;5.00;99.90;;;;;;5024130;28;20191;-50
2021/01/19 01:29:00;;;;;;;10.50;7.80;;;5.00;99.90;;;;;;5021819;28;20180;-50
2021/01/19 01:31:26;;;;;;;9.33;7.33;;;5.00;99.90;;;;;;5005735;28;20756;-46
2021/01/19 01:33:51;;;;;;;17.93;8.70;;;5.00;99.90;;;;;;5022248;28;20210;-50
2021/01/19 01:36:17;;;;;;;11.73;8.10;;;5.00;99.90;;;;;;5019551;28;20838;-49
2021/01/19 01:38:43;;;;;;;14.13;8.87;;;5.00;99.90;;;;;;5022553;28;20657;-49
2021/01/19 01:41:14;;;;;;;13.73;8.93;;;5.00;99.90;;;;;;5018767;28;20259;-53
2021/01/19 01:43:39;;;;;;;9.37;6.43;;;5.00;99.90;;;;;;5022311;28;20227;-48
2021/01/19 01:46:05;;;;;;;14.37;9.50;;;4.90;99.90;;;;;;5008909;28;20215;-49
2021/01/19 01:48:31;;;;;;;14.53;8.93;;;5.00;99.90;;;;;;5019013;28;20219;-48
2021/01/19 01:50:56;;;;;;;18.90;9.47;;;4.90;99.90;;;;;;5021936;28;20263;-48
2021/01/19 01:53:22;;;;;;;20.37;9.23;;;4.90;99.90;;;;;;5021485;28;21014;-50
2021/01/19 01:55:47;;;;;;;13.90;9.33;;;4.90;99.90;;;;;;5026683;28;20236;-49
2021/01/19 01:58:13;;;;;;;13.13;8.60;;;4.90;99.90;;;;;;5022561;28;20187;-45
2021/01/19 02:00:38;;;;;;;18.30;9.30;;;4.90;99.90;;;;;;5026384;28;20271;-47
2021/01/19 02:03:04;;;;;;;14.67;9.57;;;4.90;99.90;;;;;;5007100;28;20572;-49
2021/01/19 02:05:30;;;;;;;13.67;8.63;;;4.90;99.90;;;;;;5025405;28;20262;-49
2021/01/19 02:08:14;;;;;;;16.67;9.77;;;4.80;99.90;;;;;;5025581;28;20559;-52
2021/01/19 02:11:17;;;;;;;22.40;9.47;;;4.80;99.90;;;;;;5026244;28;20593;-50
2021/01/19 02:14:01;;;;;;;14.93;9.50;;;4.70;99.90;;;;;;5026468;28;20200;-49
2021/01/19 02:16:34;;;;;;;16.67;10.07;;;4.70;99.90;;;;;;5024681;28;20234;-47
2021/01/19 02:19:33;;;;;;;18.73;10.07;;;4.70;99.90;;;;;;5009404;28;20192;-55
2021/01/19 02:22:13;;;;;;;21.57;11.07;;;4.70;99.90;;;;;;5023637;28;20184;-48
2021/01/19 02:25:20;;;;;;;15.87;9.57;;;4.70;99.90;;;;;;5020124;28;20257;-48
2021/01/19 02:28:10;;;;;;;16.37;10.70;;;4.70;99.90;;;;;;5025205;28;20179;-46
2021/01/19 02:30:42;;;;;;;15.47;8.47;;;4.60;99.90;;;;;;5026008;28;20215;-49
2021/01/19 02:33:34;;;;;;;17.50;10.90;;;4.60;99.90;;;;;;5012357;28;20203;-49
2021/01/19 02:36:19;;;;;;;19.30;10.50;;;4.60;99.90;;;;;;5023089;28;20187;-48
2021/01/19 02:38:57;;;;;;;15.63;10.13;;;4.60;99.90;;;;;;5026840;28;20206;-49
2021/01/19 02:41:24;;;;;;;18.00;10.87;;;4.60;99.90;;;;;;5024710;28;20255;-47
2021/01/19 02:44:06;;;;;;;18.30;11.37;;;4.50;99.90;;;;;;5025771;28;20549;-53
2021/01/19 02:46:33;;;;;;;19.60;11.90;;;4.50;99.90;;;;;;5025053;28;20537;-46
2021/01/19 02:48:58;;;;;;;22.47;12.23;;;4.50;99.90;;;;;;5009429;28;20286;-52
2021/01/19 02:51:24;;;;;;;23.03;12.30;;;4.50;99.90;;;;;;5023307;28;20885;-47
2021/01/19 02:53:53;;;;;;;20.13;12.47;;;4.50;99.90;;;;;;5026018;28;20207;-53
2021/01/19 02:56:59;;;;;;;19.80;12.73;;;4.50;99.90;;;;;;5023283;28;20168;-49
2021/01/19 02:59:59;;;;;;;23.60;13.27;;;4.50;99.90;;;;;;5023579;28;20806;-49
2021/01/19 03:02:29;;;;;;;19.57;13.07;;;4.40;99.90;;;;;;5023538;28;20164;-46
2021/01/19 03:04:59;;;;;;;23.90;13.20;;;4.40;99.90;;;;;;5010430;28;20227;-49
2021/01/19 03:07:27;;;;;;;23.83;12.60;;;4.40;99.90;;;;;;5023255;28;20176;-46
2021/01/19 03:09:54;;;;;;;22.73;13.13;;;4.40;99.90;;;;;;5024725;28;20184;-51
2021/01/19 03:12:20;;;;;;;24.40;13.97;;;4.40;99.90;;;;;;5022301;28;20168;-47
2021/01/19 03:14:45;;;;;;;20.53;12.33;;;4.40;99.90;;;;;;5025325;28;20208;-47
2021/01/19 03:17:12;;;;;;;25.33;13.43;;;4.40;99.90;;;;;;5020998;28;20238;-47
2021/01/19 03:19:42;;;;;;;24.53;14.93;;;4.40;99.90;;;;;;5024927;28;20593;-48
2021/01/19 03:22:08;;;;;;;27.50;15.13;;;4.40;99.90;;;;;;5006727;28;20226;-51
2021/01/19 03:24:34;;;;;;;23.30;14.57;;;4.40;99.90;;;;;;5024714;28;20298;-47
2021/01/19 03:27:00;;;;;;;24.57;14.07;;;4.40;99.90;;;;;;5022979;28;20180;-51
2021/01/19 03:29:25;;;;;;;21.67;14.63;;;4.40;99.90;;;;;;5022998;28;20878;-45
2021/01/19 03:31:51;;;;;;;27.57;14.77;;;4.40;99.90;;;;;;5024699;28;20667;-50
2021/01/19 03:34:16;;;;;;;25.57;14.33;;;4.50;99.90;;;;;;5021852;28;20199;-52
2021/01/19 03:36:42;;;;;;;29.30;15.77;;;4.50;99.90;;;;;;5013467;28;20195;-49
2021/01/19 03:39:07;;;;;;;28.43;16.20;;;4.50;99.90;;;;;;5021772;28;20172;-50
2021/01/19 03:41:33;;;;;;;27.03;15.37;;;4.50;99.90;;;;;;5025767;28;20179;-48
2021/01/19 03:43:58;;;;;;;28.73;16.30;;;4.50;99.90;;;;;;5023152;28;20562;-49
2021/01/19 03:46:24;;;;;;;27.20;16.53;;;4.50;99.90;;;;;;5023847;28;20259;-50
2021/01/19 03:48:50;;;;;;;30.80;17.10;;;4.50;99.90;;;;;;5025768;28;20196;-52
2021/01/19 03:51:15;;;;;;;27.60;16.17;;;4.50;99.90;;;;;;5008311;28;24580;-48
2021/01/19 03:53:41;;;;;;;30.47;16.70;;;4.50;99.90;;;;;;5024541;28;20192;-48
2021/01/19 03:56:06;;;;;;;29.30;16.47;;;4.60;99.90;;;;;;5021209;28;20192;-50
2021/01/19 03:58:32;;;;;;;27.30;15.40;;;4.60;99.90;;;;;;5024854;28;20180;-46
2021/01/19 04:00:57;;;;;;;31.53;17.60;;;4.60;99.90;;;;;;5022797;28;20597;-51
2021/01/19 04:03:23;;;;;;;30.50;17.63;;;4.60;99.90;;;;;;5022985;28;20204;-53
2021/01/19 04:05:48;;;;;;;23.93;15.23;;;4.60;99.90;;;;;;5026101;28;20207;-52
2021/01/19 04:08:14;;;;;;;27.40;15.50;;;4.60;99.90;;;;;;5008964;28;20293;-49
2021/01/19 04:10:39;;;;;;;27.80;16.47;;;4.60;99.90;;;;;;5025233;28;20326;-51
2021/01/19 04:13:05;;;;;;;34.33;16.10;;;4.60;99.90;;;;;;5022439;28;20195;-52
2021/01/19 04:15:30;;;;;;;29.07;15.10;;;4.60;99.90;;;;;;5024783;28;20188;-53
2021/01/19 04:17:56;;;;;;;25.73;15.83;;;4.60;99.90;;;;;;5023651;28;20188;-53
2021/01/19 04:20:21;;;;;;;26.50;16.30;;;4.60;99.90;;;;;;5021066;28;20183;-50
2021/01/19 04:22:47;;;;;;;25.43;15.63;;;4.60;99.90;;;;;;5010457;28;20726;-50
2021/01/19 04:25:12;;;;;;;26.17;16.90;;;4.60;99.90;;;;;;5019718;28;20295;-46
2021/01/19 04:27:38;;;;;;;29.17;17.30;;;4.60;99.90;;;;;;5024150;28;20180;-50
2021/01/19 04:30:08;;;;;;;29.93;16.97;;;4.60;99.90;;;;;;5013004;28;20176;-52
2021/01/19 04:32:35;;;;;;;28.97;17.10;;;4.60;99.90;;;;;;5023872;28;20191;-46
2021/01/19 04:35:01;;;;;;;31.20;17.97;;;4.60;99.90;;;;;;5019159;28;20204;-47
2021/01/19 04:37:26;;;;;;;27.67;16.13;;;4.60;99.90;;;;;;5022152;28;20188;-51
2021/01/19 04:39:52;;;;;;;33.37;16.77;;;4.60;99.90;;;;;;5002953;28;20196;-51
2021/01/19 04:42:19;;;;;;;31.83;16.47;;;4.60;99.90;;;;;;5021235;28;20791;-46
2021/01/19 04:44:45;;;;;;;31.00;18.30;;;4.60;99.90;;;;;;5023078;28;20615;-47
2021/01/19 04:47:12;;;;;;;27.23;15.73;;;4.60;99.90;;;;;;5019703;28;20196;-47
2021/01/19 04:49:38;;;;;;;30.67;17.37;;;4.60;99.90;;;;;;5023366;28;20187;-46
2021/01/19 04:52:05;;;;;;;33.73;18.00;;;4.60;99.90;;;;;;5019590;28;20227;-49
2021/01/19 04:54:55;;;;;;;66.70;22.70;;;4.60;99.90;;;;;;5009914;28;20216;-46
2021/01/19 04:57:29;;;;;;;21.03;13.40;;;4.60;99.90;;;;;;5021507;28;20274;-45
2021/01/19 05:00:00;;;;;;;34.57;16.27;;;4.60;99.90;;;;;;5020928;28;20314;-54
2021/01/19 05:02:43;;;;;;;42.53;17.87;;;4.50;99.90;;;;;;5015960;28;20184;-51
2021/01/19 05:05:21;;;;;;;40.53;17.67;;;4.50;99.90;;;;;;5020531;28;20210;-53
2021/01/19 05:08:23;;;;;;;40.37;18.57;;;4.50;99.90;;;;;;5019514;28;20271;-52
2021/01/19 05:10:55;;;;;;;34.93;16.37;;;4.50;99.90;;;;;;5004705;28;20245;-48
2021/01/19 05:13:50;;;;;;;24.80;13.97;;;4.40;99.90;;;;;;5017759;28;21028;-48
2021/01/19 05:16:19;;;;;;;19.33;12.20;;;4.40;99.90;;;;;;5021542;28;20172;-48
2021/01/19 05:18:45;;;;;;;44.43;17.40;;;4.40;99.90;;;;;;5023363;28;20187;-54
2021/01/19 05:21:11;;;;;;;25.90;14.57;;;4.40;99.90;;;;;;5015039;28;21060;-51
2021/01/19 05:23:37;;;;;;;46.17;16.50;;;4.30;99.90;;;;;;5023904;28;20250;-46
2021/01/19 05:26:05;;;;;;;29.57;13.27;;;4.30;99.90;;;;;;5006295;28;20237;-55
2021/01/19 05:28:35;;;;;;;24.97;11.10;;;4.30;99.90;;;;;;5024549;28;20238;-46
2021/01/19 05:31:04;;;;;;;29.47;12.53;;;4.30;99.90;;;;;;5024540;28;20168;-48
2021/01/19 05:33:29;;;;;;;27.33;13.13;;;4.20;99.90;;;;;;5028172;28;20257;-46
2021/01/19 05:36:11;;;;;;;24.77;12.03;;;4.20;99.90;;;;;;5026067;28;20262;-53
2021/01/19 05:38:47;;;;;;;24.43;11.77;;;4.20;99.90;;;;;;5023068;28;20187;-50
2021/01/19 05:41:40;;;;;;;29.07;12.23;;;4.20;99.90;;;;;;5010946;28;20615;-48
2021/01/19 05:44:12;;;;;;;12.17;8.50;;;4.20;99.90;;;;;;5022930;28;20230;-50
2021/01/19 05:46:59;;;;;;;17.50;9.03;;;4.10;99.90;;;;;;5027645;28;20207;-47
2021/01/19 05:49:46;;;;;;;18.83;9.53;;;4.10;99.90;;;;;;5022982;28;20188;-46
2021/01/19 05:52:18;;;;;;;19.23;8.90;;;4.10;99.90;;;;;;5024248;28;20330;-46
2021/01/19 05:54:48;;;;;;;11.63;8.63;;;4.10;99.90;;;;;;5023032;28;20214;-46
2021/01/19 05:57:21;;;;;;;10.23;7.50;;;4.10;99.90;;;;;;5010731;28;20241;-46
2021/01/19 05:59:55;;;;;;;13.17;8.87;;;4.00;99.90;;;;;;5022537;28;20199;-51
2021/01/19 06:02:23;;;;;;;10.03;7.20;;;4.00;99.90;;;;;;5019343;28;20281;-49
2021/01/19 06:04:52;;;;;;;10.80;7.00;;;4.00;99.90;;;;;;5023427;28;20227;-46
2021/01/19 06:07:23;;;;;;;10.50;7.87;;;4.00;99.90;;;;;;5022174;28;20180;-45
2021/01/19 06:09:49;;;;;;;9.73;7.07;;;4.00;99.90;;;;;;5017338;28;20273;-49
2021/01/19 06:12:16;;;;;;;8.40;7.00;;;3.90;99.90;;;;;;5012699;28;20208;-48
2021/01/19 06:14:49;;;;;;;16.57;8.20;;;3.90;99.90;;;;;;5022745;28;20754;-48
2021/01/19 06:17:20;;;;;;;10.17;7.13;;;3.90;99.90;;;;;;5020246;28;20196;-51
2021/01/19 06:19:47;;;;;;;12.00;7.13;;;3.90;99.90;;;;;;5017363;28;20187;-51
2021/01/19 06:22:15;;;;;;;9.20;7.67;;;3.90;99.90;;;;;;5023670;28;20228;-51
2021/01/19 06:24:45;;;;;;;10.03;7.13;;;3.90;99.90;;;;;;5020151;28;20250;-49
2021/01/19 06:27:25;;;;;;;11.17;6.70;;;3.80;99.90;;;;;;5013982;28;20184;-47
2021/01/19 06:29:51;;;;;;;7.80;6.60;;;3.80;99.90;;;;;;5022184;28;20230;-47
2021/01/19 06:32:18;;;;;;;10.73;7.37;;;3.80;99.90;;;;;;5025201;28;20184;-49
2021/01/19 06:34:44;;;;;;;12.23;7.60;;;3.80;99.90;;;;;;5018569;28;20470;-52
2021/01/19 06:37:22;;;;;;;8.93;7.03;;;3.80;99.90;;;;;;5022011;28;20191;-47
2021/01/19 06:39:55;;;;;;;8.80;7.17;;;3.80;99.90;;;;;;5008339;28;20198;-46
2021/01/19 06:42:25;;;;;;;8.27;6.47;;;3.70;99.90;;;;;;5018836;28;20227;-46
2021/01/19 06:44:55;;;;;;;7.97;7.03;;;3.70;99.90;;;;;;5010142;28;20277;-48
2021/01/19 06:47:21;;;;;;;12.53;7.20;;;3.70;99.90;;;;;;5026978;28;20629;-51
2021/01/19 06:49:46;;;;;;;7.90;6.47;;;3.70;99.90;;;;;;5017622;28;20203;-47
2021/01/19 06:52:14;;;;;;;8.33;6.97;;;3.70;99.90;;;;;;5025704;28;20436;-49
2021/01/19 06:54:39;;;;;;;8.37;6.43;;;3.70;99.90;;;;;;5014012;28;20242;-46
2021/01/19 06:57:18;;;;;;;10.70;7.10;;;3.70;99.90;;;;;;5023979;28;20638;-48
2021/01/19 07:00:01;;;;;;;7.57;6.33;;;3.70;99.90;;;;;;5007296;28;20184;-46
2021/01/19 07:02:34;;;;;;;7.93;6.60;;;3.70;99.90;;;;;;5022875;28;20215;-48
2021/01/19 07:05:16;;;;;;;16.90;7.70;;;3.70;99.90;;;;;;5020014;28;20307;-48
2021/01/19 07:07:47;;;;;;;9.30;7.43;;;3.70;99.90;;;;;;5022237;28;20242;-50
2021/01/19 07:10:20;;;;;;;9.30;6.60;;;3.70;99.90;;;;;;5015906;28;20242;-46
2021/01/19 07:13:03;;;;;;;10.40;6.60;;;3.60;99.90;;;;;;5021246;28;20924;-47
2021/01/19 07:15:52;;;;;;;10.90;6.80;;;3.60;99.90;;;;;;5007728;28;20192;-46
2021/01/19 07:18:42;;;;;;;7.27;6.20;;;3.60;99.90;;;;;;5017783;28;20266;-47
2021/01/19 07:21:16;;;;;;;13.17;6.90;;;3.60;99.90;;;;;;5020425;28;20231;-46
2021/01/19 07:23:44;;;;;;;6.93;5.70;;;3.60;99.90;;;;;;5015340;28;20578;-52
2021/01/19 07:26:18;;;;;;;8.10;5.53;;;3.60;99.90;;;;;;5021433;28;20180;-51
2021/01/19 07:28:44;;;;;;;10.20;5.63;;;3.60;99.90;;;;;;5023005;28;20779;-48
2021/01/19 07:31:15;;;;;;;6.60;5.57;;;3.60;99.90;;;;;;5013625;28;20859;-51
2021/01/19 07:33:43;;;;;;;6.87;6.17;;;3.60;99.90;;;;;;5022587;28;20218;-50
2021/01/19 07:36:16;;;;;;;8.53;5.83;;;3.60;99.90;;;;;;5020944;28;20212;-46
2021/01/19 07:38:42;;;;;;;7.40;6.33;;;3.60;99.90;;;;;;5019416;28;20278;-48
2021/01/19 07:41:08;;;;;;;7.80;6.33;;;3.60;99.90;;;;;;5007045;28;20275;-49
2021/01/19 07:43:36;;;;;;;11.50;6.87;;;3.60;99.90;;;;;;5020972;28;20286;-48
2021/01/19 07:46:02;;;;;;;9.00;6.93;;;3.60;99.90;;;;;;5010991;28;20208;-52
2021/01/19 07:48:36;;;;;;;7.47;6.40;;;3.60;99.90;;;;;;5020580;28;20882;-50
2021/01/19 07:51:15;;;;;;;8.53;7.17;;;3.60;99.90;;;;;;5016446;28;20199;-55
2021/01/19 07:53:48;;;;;;;6.80;5.90;;;3.60;99.90;;;;;;5022057;28;20298;-49
2021/01/19 07:56:29;;;;;;;13.37;7.17;;;3.60;99.90;;;;;;5017486;28;20180;-49
2021/01/19 07:58:56;;;;;;;9.80;6.63;;;3.60;99.90;;;;;;5019918;28;20211;-46
2021/01/19 08:01:30;;;;;;;6.73;5.47;;;3.60;99.90;;;;;;5007651;28;20200;-49
2021/01/19 08:04:08;;;;;;;5.93;5.33;;;3.60;99.90;;;;;;5023126;28;20282;-48
2021/01/19 08:06:34;;;;;;;7.27;6.57;;;3.60;99.90;;;;;;5020233;28;20238;-50
2021/01/19 08:09:16;;;;;;;7.50;6.27;;;3.60;99.90;;;;;;5019843;28;20536;-51
2021/01/19 08:11:46;;;;;;;7.23;6.30;;;3.60;99.90;;;;;;5010676;28;20276;-47
2021/01/19 08:14:12;;;;;;;8.20;5.73;;;3.60;99.90;;;;;;5013243;28;20735;-49
2021/01/19 08:16:41;;;;;;;8.67;6.77;;;3.60;99.90;;;;;;5037117;28;20216;-47
2021/01/19 08:19:15;;;;;;;9.10;7.13;;;3.60;99.90;;;;;;5012345;28;20200;-57
2021/01/19 08:21:47;;;;;;;9.80;6.47;;;3.60;99.90;;;;;;5024408;28;20219;-53
2021/01/19 08:24:13;;;;;;;7.87;6.17;;;3.60;99.90;;;;;;5016029;28;20978;-47
2021/01/19 08:26:39;;;;;;;8.37;5.90;;;3.60;99.90;;;;;;5020322;28;20275;-48
2021/01/19 08:29:05;;;;;;;6.47;5.60;;;3.60;99.90;;;;;;5016295;28;20560;-57
2021/01/19 08:31:33;;;;;;;8.23;6.20;;;3.60;99.90;;;;;;5024355;28;21146;-45
2021/01/19 08:34:03;;;;;;;6.47;5.77;;;3.60;99.90;;;;;;5003688;28;20262;-53
2021/01/19 08:36:30;;;;;;;7.67;6.03;;;3.60;99.90;;;;;;5022466;28;20180;-47
2021/01/19 08:38:57;;;;;;;6.73;5.93;;;3.60;99.90;;;;;;5022311;28;20230;-53
2021/01/19 08:41:23;;;;;;;9.33;5.57;;;3.60;99.90;;;;;;5016218;28;20269;-49
2021/01/19 08:43:53;;;;;;;8.67;6.00;;;3.60;99.90;;;;;;5018656;28;20288;-51
2021/01/19 08:46:19;;;;;;;8.47;4.87;;;3.60;99.90;;;;;;5020245;28;20219;-49
2021/01/19 08:48:44;;;;;;;9.43;5.13;;;3.60;99.90;;;;;;5010366;28;20287;-47
2021/01/19 08:51:24;;;;;;;5.07;4.57;;;3.60;99.90;;;;;;5019542;28;20192;-52
2021/01/19 08:53:49;;;;;;;4.93;4.13;;;3.60;99.90;;;;;;5023573;28;20208;-48
2021/01/19 08:56:19;;;;;;;6.37;4.73;;;3.60;99.90;;;;;;5019609;28;20176;-50
2021/01/19 08:58:45;;;;;;;6.63;4.40;;;3.60;99.90;;;;;;5013142;28;20347;-52
2021/01/19 09:01:11;;;;;;;4.97;3.50;;;3.60;99.90;;;;;;5019583;28;20326;-49
2021/01/19 09:03:36;;;;;;;5.30;3.37;;;3.60;99.90;;;;;;5013175;28;20253;-48
2021/01/19 09:06:03;;;;;;;5.50;3.87;;;3.60;99.90;;;;;;5022071;28;20274;-49
2021/01/19 09:08:29;;;;;;;5.50;3.47;;;3.60;99.90;;;;;;5021817;28;20176;-46
2021/01/19 09:11:08;;;;;;;4.77;4.03;;;3.60;99.90;;;;;;5019067;28;20249;-53
2021/01/19 09:13:39;;;;;;;5.37;3.37;;;3.60;99.90;;;;;;5013614;28;20700;-52
2021/01/19 09:16:05;;;;;;;8.27;4.20;;;3.60;99.90;;;;;;5016742;28;20199;-52
2021/01/19 09:18:30;;;;;;;5.70;3.60;;;3.60;99.90;;;;;;5022840;28;20710;-51
2021/01/19 09:21:10;;;;;;;3.47;3.17;;;3.70;99.90;;;;;;5010196;28;20208;-53
2021/01/19 09:23:37;;;;;;;3.07;2.77;;;3.60;99.90;;;;;;5018940;28;20235;-51
2021/01/19 09:26:07;;;;;;;2.73;2.50;;;3.60;99.90;;;;;;5018089;28;20211;-49
2021/01/19 09:28:37;;;;;;;3.13;2.93;;;3.60;99.90;;;;;;5019152;28;20185;-55
2021/01/19 09:31:15;;;;;;;4.50;2.83;;;3.70;99.90;;;;;;5016193;28;20184;-53
2021/01/19 09:33:42;;;;;;;3.57;2.63;;;3.60;99.90;;;;;;5022582;28;20226;-47
2021/01/19 09:36:09;;;;;;;6.00;3.10;;;3.60;99.90;;;;;;5002833;28;20202;-57
2021/01/19 09:38:36;;;;;;;2.80;1.80;;;3.60;99.90;;;;;;5022221;28;20245;-51
2021/01/19 09:41:03;;;;;;;2.33;2.13;;;3.60;99.90;;;;;;5019652;28;20192;-51
2021/01/19 09:43:29;;;;;;;1.93;1.70;;;3.60;99.90;;;;;;5018949;28;20200;-51
2021/01/19 09:46:01;;;;;;;3.20;1.97;;;3.60;99.90;;;;;;5007928;28;20201;-51
2021/01/19 09:48:30;;;;;;;1.70;1.53;;;3.50;99.90;;;;;;5020214;28;20188;-47
2021/01/19 09:51:03;;;;;;;1.80;1.70;;;3.50;99.90;;;;;;5005439;28;20661;-48
2021/01/19 09:53:32;;;;;;;6.23;2.37;;;3.50;99.90;;;;;;5023073;28;20559;-53
2021/01/19 09:56:00;;;;;;;2.43;1.70;;;3.50;99.90;;;;;;5023148;28;20246;-51
2021/01/19 09:58:27;;;;;;;2.53;1.60;;;3.50;99.90;;;;;;5017306;28;20184;-50
2021/01/19 10:00:53;;;;;;;1.77;1.57;;;3.50;99.90;;;;;;5017588;28;20279;-54
2021/01/19 10:03:25;;;;;;;1.67;1.57;;;3.50;99.90;;;;;;5021046;28;20196;-53
2021/01/19 10:06:07;;;;;;;1.67;1.57;;;3.50;99.90;;;;;;5010198;28;20381;-52
2021/01/19 10:08:36;;;;;;;2.73;1.60;;;3.50;99.90;;;;;;5022145;28;20272;-50
2021/01/19 10:11:02;;;;;;;4.30;1.40;;;3.50;99.90;;;;;;5019301;28;20845;-50
2021/01/19 10:13:29;;;;;;;1.60;1.50;;;3.50;99.90;;;;;;5017394;28;20215;-59
2021/01/19 10:16:03;;;;;;;1.57;1.47;;;3.50;99.90;;;;;;5016118;28;20273;-55
2021/01/19 10:18:31;;;;;;;1.50;1.40;;;3.60;99.90;;;;;;5022630;28;20241;-53
2021/01/19 10:20:57;;;;;;;4.33;1.40;;;3.60;99.90;;;;;;5022342;28;20233;-51
2021/01/19 10:23:28;;;;;;;1.67;1.57;;;3.60;99.90;;;;;;5013885;28;20212;-57
2021/01/19 10:26:10;;;;;;;1.40;1.30;;;3.60;99.90;;;;;;5020281;28;20207;-53
2021/01/19 10:28:42;;;;;;;3.03;1.83;;;3.60;99.90;;;;;;5020243;28;20694;-56
2021/01/19 10:31:16;;;;;;;1.70;1.50;;;3.70;99.90;;;;;;5019093;28;20175;-53
2021/01/19 10:34:08;;;;;;;1.70;1.60;;;3.70;99.90;;;;;;5022182;28;20212;-58
2021/01/19 10:36:37;;;;;;;2.60;1.60;;;3.70;99.90;;;;;;5013106;28;20253;-58
2021/01/19 10:39:09;;;;;;;2.43;1.87;;;3.70;99.90;;;;;;5014253;28;20187;-53
2021/01/19 10:41:35;;;;;;;2.13;1.93;;;3.80;99.90;;;;;;5026210;28;20180;-52
2021/01/19 10:44:01;;;;;;;1.83;1.67;;;3.80;99.90;;;;;;5022970;28;20584;-56
2021/01/19 10:46:29;;;;;;;3.33;1.70;;;3.80;99.90;;;;;;5023966;28;20192;-55
2021/01/19 10:49:06;;;;;;;2.77;1.90;;;3.80;99.90;;;;;;5017822;28;20215;-59
2021/01/19 10:51:32;;;;;;;2.60;1.70;;;3.80;99.90;;;;;;5024991;28;20172;-59
2021/01/19 10:54:09;;;;;;;4.30;1.57;;;3.80;99.90;;;;;;5008944;28;20207;-52
2021/01/19 10:56:36;;;;;;;1.87;1.70;;;3.90;99.90;;;;;;5024101;28;20187;-55
2021/01/19 10:59:02;;;;;;;2.10;1.90;;;3.90;99.90;;;;;;5020529;28;20184;-57
2021/01/19 11:01:28;;;;;;;3.60;1.80;;;3.90;99.90;;;;;;5018968;28;20192;-58
2021/01/19 11:03:53;;;;;;;1.80;1.70;;;3.90;99.90;;;;;;5015032;28;20795;-54
2021/01/19 11:06:20;;;;;;;1.87;1.77;;;4.00;99.90;;;;;;5019802;28;20649;-54
2021/01/19 11:08:46;;;;;;;3.90;1.73;;;4.00;99.90;;;;;;5008017;28;20242;-53
2021/01/19 11:11:12;;;;;;;1.57;1.47;;;4.00;99.90;;;;;;5030010;28;20184;-58
2021/01/19 11:13:38;;;;;;;1.80;1.70;;;4.00;99.90;;;;;;5023629;28;20282;-60
2021/01/19 11:16:04;;;;;;;3.27;1.70;;;4.10;99.90;;;;;;5016686;28;20187;-54
2021/01/19 11:18:29;;;;;;;2.00;1.80;;;4.10;99.90;;;;;;5019440;28;20192;-56
2021/01/19 11:20:55;;;;;;;1.90;1.73;;;4.10;99.90;;;;;;5021397;28;20184;-55
2021/01/19 11:23:20;;;;;;;2.40;1.93;;;4.10;99.90;;;;;;5025466;28;20204;-51
2021/01/19 11:25:46;;;;;;;1.73;1.63;;;4.10;99.90;;;;;;5004482;28;20795;-56
2021/01/19 11:28:13;;;;;;;2.00;1.87;;;4.20;99.90;;;;;;5024957;28;20188;-52
2021/01/19 11:30:38;;;;;;;2.23;2.00;;;4.20;99.90;;;;;;5020147;28;20230;-50
2021/01/19 11:33:04;;;;;;;1.90;1.80;;;4.20;99.90;;;;;;5021004;28;20251;-53
2021/01/19 11:35:31;;;;;;;3.13;2.07;;;4.20;99.90;;;;;;5019015;28;20189;-53
2021/01/19 11:37:57;;;;;;;2.90;2.23;;;4.30;99.90;;;;;;5022086;28;20177;-51
2021/01/19 11:40:22;;;;;;;2.23;2.03;;;4.30;99.90;;;;;;5010933;28;20202;-51
2021/01/19 11:42:48;;;;;;;2.77;2.37;;;4.30;99.90;;;;;;5020895;28;20187;-49
2021/01/19 11:45:14;;;;;;;4.37;2.60;;;4.40;99.90;;;;;;5024045;28;20693;-46
2021/01/19 11:47:39;;;;;;;2.93;2.27;;;4.40;99.90;;;;;;5018256;28;20200;-52
2021/01/19 11:50:06;;;;;;;2.70;2.50;;;4.40;99.90;;;;;;5015615;28;20176;-46
2021/01/19 11:52:31;;;;;;;3.13;2.83;;;4.50;99.90;;;;;;5023840;28;20322;-57
2021/01/19 11:54:57;;;;;;;3.83;3.00;;;4.50;99.90;;;;;;5007323;28;20299;-48
2021/01/19 11:57:23;;;;;;;3.43;3.13;;;4.50;99.90;;;;;;5021087;28;20176;-53
2021/01/19 11:59:48;;;;;;;3.63;3.20;;;4.60;99.90;;;;;;5020392;28;20314;-49
2021/01/19 12:02:14;;;;;;;3.03;2.83;;;4.60;99.90;;;;;;5010815;28;20199;-46
2021/01/19 12:04:40;;;;;;;10.50;4.40;;;4.60;99.90;;;;;;5012354;28;20216;-54
2021/01/19 12:07:07;;;;;;;4.23;3.67;;;4.70;99.90;;;;;;5021967;28;20259;-51
2021/01/19 12:09:33;;;;;;;8.47;5.03;;;4.70;99.90;;;;;;5018903;28;20569;-58
2021/01/19 12:12:00;;;;;;;5.50;3.73;;;4.70;99.90;;;;;;5011175;28;20168;-46
2021/01/19 12:14:25;;;;;;;6.53;3.10;;;4.70;99.90;;;;;;5022492;28;20204;-47
2021/01/19 12:16:58;;;;;;;5.30;3.17;;;4.80;99.90;;;;;;5019949;28;20210;-48
2021/01/19 12:19:25;;;;;;;13.00;4.50;;;4.80;99.90;;;;;;5020180;28;20679;-47
2021/01/19 12:21:52;;;;;;;6.10;4.07;;;4.80;99.90;;;;;;5015606;28;20194;-49
2021/01/19 12:24:19;;;;;;;3.10;2.60;;;4.80;99.90;;;;;;5017644;28;20205;-47
2021/01/19 12:26:46;;;;;;;13.20;4.80;;;4.80;99.90;;;;;;5002979;28;20245;-50
2021/01/19 12:29:13;;;;;;;6.47;4.37;;;4.80;99.90;;;;;;5015317;28;20334;-50
2021/01/19 12:31:38;;;;;;;3.80;3.03;;;4.80;99.90;;;;;;5018914;28;20525;-49
2021/01/19 12:34:04;;;;;;;6.83;4.17;;;4.80;99.90;;;;;;5017597;28;20200;-53
2021/01/19 12:36:30;;;;;;;18.43;6.00;;;4.90;99.90;;;;;;5018062;28;20187;-52
2021/01/19 12:38:57;;;;;;;13.90;5.40;;;4.90;99.90;;;;;;5018199;28;20179;-53
2021/01/19 12:41:22;;;;;;;24.53;6.33;;;4.90;99.90;;;;;;5018952;28;20180;-48
2021/01/19 12:43:48;;;;;;;16.93;6.50;;;4.90;99.90;;;;;;5002109;28;20310;-52
2021/01/19 12:46:14;;;;;;;7.50;4.27;;;4.90;99.90;;;;;;5015555;28;20630;-54
2021/01/19 12:48:40;;;;;;;23.33;7.03;;;5.00;99.90;;;;;;5012548;28;20199;-51
2021/01/19 12:51:12;;;;;;;6.60;4.60;;;5.00;99.90;;;;;;5015378;28;20184;-49
2021/01/19 12:53:38;;;;;;;7.67;4.13;;;5.00;99.90;;;;;;5021092;28;20203;-56
2021/01/19 12:56:03;;;;;;;20.63;6.30;;;5.00;99.90;;;;;;5018432;28;20192;-45
2021/01/19 12:58:29;;;;;;;25.90;7.20;;;5.00;99.90;;;;;;5010019;28;20207;-56
2021/01/19 13:00:54;;;;;;;6.40;3.93;;;5.00;99.90;;;;;;5014685;28;20191;-55